sensor_id;sensor_type;location;lat;lon;timestamp;temperature;humidity
11095;DHT22;5601;44.490;11.400;2022-12-07T01:09:41;5.90;99.90
11095;DHT22;5601;44.490;11.400;2022-12-07T01:12:08;5.90;99.90
11095;DHT22;5601;44.490;11.400;2022-12-07T01:14:35;5.80;99.90
11095;DHT22;5601;44.490;11.400;2022-12-07T01:17:03;5.80;99.90
11095;DHT22;5601;44.490;11.400;2022-12-07T01:19:30;5.80;99.90
11095;DHT22;5601;44.490;11.400;2022-12-07T01:21:57;5.80;99.90
11095;DHT22;5601;44.490;11.400;2022-12-07T01:24:24;5.80;99.90
11095;DHT22;5601;44.490;11.400;2022-12-07T01:26:52;5.80;99.90
11095;DHT22;5601;44.490;11.400;2022-12-07T01:29:20;5.80;99.90
11095;DHT22;5601;44.490;11.400;2022-12-07T01:31:48;5.90;99.90
11095;DHT22;5601;44.490;11.400;2022-12-07T01:34:15;5.90;99.90
11095;DHT22;5601;44.490;11.400;2022-12-07T01:36:42;5.90;99.90
11095;DHT22;5601;44.490;11.400;2022-12-07T01:39:09;5.80;99.90
11095;DHT22;5601;44.490;11.400;2022-12-07T01:41:38;5.80;99.90
11095;DHT22;5601;44.490;11.400;2022-12-07T01:44:09;5.80;99.90
11095;DHT22;5601;44.490;11.400;2022-12-07T01:46:36;5.80;99.90
11095;DHT22;5601;44.490;11.400;2022-12-07T01:49:03;5.80;99.90
11095;DHT22;5601;44.490;11.400;2022-12-07T01:51:32;5.80;99.90
11095;DHT22;5601;44.490;11.400;2022-12-07T01:54:00;5.80;99.90
11095;DHT22;5601;44.490;11.400;2022-12-07T01:56:27;5.70;99.90
11095;DHT22;5601;44.490;11.400;2022-12-07T01:58:56;5.70;99.90
11095;DHT22;5601;44.490;11.400;2022-12-07T02:01:25;5.60;99.90
11095;DHT22;5601;44.490;11.400;2022-12-07T02:03:52;5.60;99.90
11095;DHT22;5601;44.490;11.400;2022-12-07T02:06:21;5.40;99.90
11095;DHT22;5601;44.490;11.400;2022-12-07T02:08:48;5.40;99.90
11095;DHT22;5601;44.490;11.400;2022-12-07T02:11:16;5.30;99.90
11095;DHT22;5601;44.490;11.400;2022-12-07T02:13:44;5.30;99.90
11095;DHT22;5601;44.490;11.400;2022-12-07T02:16:21;5.30;99.90
11095;DHT22;5601;44.490;11.400;2022-12-07T02:18:55;5.30;99.90
11095;DHT22;5601;44.490;11.400;2022-12-07T02:21:29;5.30;99.90
11095;DHT22;5601;44.490;11.400;2022-12-07T02:24:06;5.20;99.90
11095;DHT22;5601;44.490;11.400;2022-12-07T02:26:44;5.20;99.90
11095;DHT22;5601;44.490;11.400;2022-12-07T02:29:16;5.20;99.90
11095;DHT22;5601;44.490;11.400;2022-12-07T02:31:49;5.20;99.90
11095;DHT22;5601;44.490;11.400;2022-12-07T02:34:19;5.20;99.90
11095;DHT22;5601;44.490;11.400;2022-12-07T02:36:51;5.20;99.90
11095;DHT22;5601;44.490;11.400;2022-12-07T02:39:20;5.20;99.90
11095;DHT22;5601;44.490;11.400;2022-12-07T02:41:51;5.20;99.90
11095;DHT22;5601;44.490;11.400;2022-12-07T02:44:21;5.10;99.90
11095;DHT22;5601;44.490;11.400;2022-12-07T02:46:51;5.10;99.90
11095;DHT22;5601;44.490;11.400;2022-12-07T02:49:21;5.20;99.90
11095;DHT22;5601;44.490;11.400;2022-12-07T02:51:49;5.20;99.90
11095;DHT22;5601;44.490;11.400;2022-12-07T02:54:17;5.20;99.90
11095;DHT22;5601;44.490;11.400;2022-12-07T02:56:45;5.20;99.90
11095;DHT22;5601;44.490;11.400;2022-12-07T02:59:16;5.20;99.90
11095;DHT22;5601;44.490;11.400;2022-12-07T03:01:50;5.30;99.90
11095;DHT22;5601;44.490;11.400;2022-12-07T03:04:26;5.30;99.90
11095;DHT22;5601;44.490;11.400;2022-12-07T03:07:00;5.30;99.90
11095;DHT22;5601;44.490;11.400;2022-12-07T03:09:32;5.30;99.90
11095;DHT22;5601;44.490;11.400;2022-12-07T03:12:01;5.30;99.90
11095;DHT22;5601;44.490;11.400;2022-12-07T03:14:34;5.40;99.90
11095;DHT22;5601;44.490;11.400;2022-12-07T03:17:05;5.40;99.90
11095;DHT22;5601;44.490;11.400;2022-12-07T03:19:33;5.50;99.90
11095;DHT22;5601;44.490;11.400;2022-12-07T03:22:02;5.50;99.90
11095;DHT22;5601;44.490;11.400;2022-12-07T03:24:31;5.50;99.90
11095;DHT22;5601;44.490;11.400;2022-12-07T03:27:01;5.50;99.90
11095;DHT22;5601;44.490;11.400;2022-12-07T03:29:31;5.50;99.90
11095;DHT22;5601;44.490;11.400;2022-12-07T03:32:01;5.50;99.90
11095;DHT22;5601;44.490;11.400;2022-12-07T03:34:31;5.50;99.90
11095;DHT22;5601;44.490;11.400;2022-12-07T03:37:01;5.50;99.90
11095;DHT22;5601;44.490;11.400;2022-12-07T03:39:30;5.50;99.90
11095;DHT22;5601;44.490;11.400;2022-12-07T03:42:00;5.50;99.90
11095;DHT22;5601;44.490;11.400;2022-12-07T03:44:29;5.50;99.90
11095;DHT22;5601;44.490;11.400;2022-12-07T03:46:59;5.50;99.90
11095;DHT22;5601;44.490;11.400;2022-12-07T03:49:28;5.50;99.90
11095;DHT22;5601;44.490;11.400;2022-12-07T03:52:00;5.50;99.90
11095;DHT22;5601;44.490;11.400;2022-12-07T03:54:29;5.50;99.90
11095;DHT22;5601;44.490;11.400;2022-12-07T03:56:58;5.50;99.90
11095;DHT22;5601;44.490;11.400;2022-12-07T03:59:26;5.50;99.90
11095;DHT22;5601;44.490;11.400;2022-12-07T04:01:55;5.50;99.90
11095;DHT22;5601;44.490;11.400;2022-12-07T04:04:23;5.40;99.90
11095;DHT22;5601;44.490;11.400;2022-12-07T04:06:51;5.40;99.90
11095;DHT22;5601;44.490;11.400;2022-12-07T04:09:21;5.40;99.90
11095;DHT22;5601;44.490;11.400;2022-12-07T04:11:49;5.50;99.90
11095;DHT22;5601;44.490;11.400;2022-12-07T04:14:16;5.50;99.90
11095;DHT22;5601;44.490;11.400;2022-12-07T04:16:46;5.50;99.90
11095;DHT22;5601;44.490;11.400;2022-12-07T04:19:13;5.50;99.90
11095;DHT22;5601;44.490;11.400;2022-12-07T04:21:41;5.50;99.90
11095;DHT22;5601;44.490;11.400;2022-12-07T04:24:09;5.50;99.90
11095;DHT22;5601;44.490;11.400;2022-12-07T04:26:38;5.50;99.90
11095;DHT22;5601;44.490;11.400;2022-12-07T04:29:05;5.60;99.90
11095;DHT22;5601;44.490;11.400;2022-12-07T04:31:33;5.60;99.90
11095;DHT22;5601;44.490;11.400;2022-12-07T04:34:02;5.60;99.90
11095;DHT22;5601;44.490;11.400;2022-12-07T04:36:29;5.60;99.90
11095;DHT22;5601;44.490;11.400;2022-12-07T04:38:57;5.60;99.90
11095;DHT22;5601;44.490;11.400;2022-12-07T04:41:24;5.60;99.90
11095;DHT22;5601;44.490;11.400;2022-12-07T04:43:55;5.60;99.90
11095;DHT22;5601;44.490;11.400;2022-12-07T04:46:23;5.60;99.90
11095;DHT22;5601;44.490;11.400;2022-12-07T04:48:51;5.70;99.90
11095;DHT22;5601;44.490;11.400;2022-12-07T04:51:19;5.70;99.90
11095;DHT22;5601;44.490;11.400;2022-12-07T04:53:46;5.60;99.90
11095;DHT22;5601;44.490;11.400;2022-12-07T04:56:13;5.70;99.90
11095;DHT22;5601;44.490;11.400;2022-12-07T04:58:40;5.70;99.90
11095;DHT22;5601;44.490;11.400;2022-12-07T05:01:09;5.70;99.90
11095;DHT22;5601;44.490;11.400;2022-12-07T05:03:36;5.70;99.90
11095;DHT22;5601;44.490;11.400;2022-12-07T05:06:04;5.80;99.90
11095;DHT22;5601;44.490;11.400;2022-12-07T05:08:32;5.80;99.90
11095;DHT22;5601;44.490;11.400;2022-12-07T05:10:59;5.70;99.90
11095;DHT22;5601;44.490;11.400;2022-12-07T05:13:26;5.70;99.90
11095;DHT22;5601;44.490;11.400;2022-12-07T05:15:53;5.70;99.90
11095;DHT22;5601;44.490;11.400;2022-12-07T05:18:22;5.70;99.90
11095;DHT22;5601;44.490;11.400;2022-12-07T05:20:50;5.70;99.90
11095;DHT22;5601;44.490;11.400;2022-12-07T05:23:17;5.70;99.90
11095;DHT22;5601;44.490;11.400;2022-12-07T05:25:45;5.70;99.90
11095;DHT22;5601;44.490;11.400;2022-12-07T05:28:13;5.80;99.90
11095;DHT22;5601;44.490;11.400;2022-12-07T05:30:40;5.80;99.90
11095;DHT22;5601;44.490;11.400;2022-12-07T05:33:08;5.80;99.90
11095;DHT22;5601;44.490;11.400;2022-12-07T05:35:36;5.70;99.90
11095;DHT22;5601;44.490;11.400;2022-12-07T05:38:04;5.70;99.90
11095;DHT22;5601;44.490;11.400;2022-12-07T05:40:31;5.70;99.90
11095;DHT22;5601;44.490;11.400;2022-12-07T05:42:58;5.70;99.90
11095;DHT22;5601;44.490;11.400;2022-12-07T05:45:25;5.70;99.90
11095;DHT22;5601;44.490;11.400;2022-12-07T05:47:52;5.80;99.90
11095;DHT22;5601;44.490;11.400;2022-12-07T05:50:19;5.80;99.90
11095;DHT22;5601;44.490;11.400;2022-12-07T05:52:48;5.80;99.90
11095;DHT22;5601;44.490;11.400;2022-12-07T05:55:16;5.80;99.90
11095;DHT22;5601;44.490;11.400;2022-12-07T05:57:43;5.80;99.90
11095;DHT22;5601;44.490;11.400;2022-12-07T06:00:31;5.70;99.90
11095;DHT22;5601;44.490;11.400;2022-12-07T06:02:56;5.80;99.90
11095;DHT22;5601;44.490;11.400;2022-12-07T06:05:24;5.80;99.90
11095;DHT22;5601;44.490;11.400;2022-12-07T06:07:53;5.80;99.90
11095;DHT22;5601;44.490;11.400;2022-12-07T06:10:19;5.80;99.90
11095;DHT22;5601;44.490;11.400;2022-12-07T06:12:46;5.80;99.90
11095;DHT22;5601;44.490;11.400;2022-12-07T06:15:13;5.80;99.90
11095;DHT22;5601;44.490;11.400;2022-12-07T06:17:40;5.80;99.90
11095;DHT22;5601;44.490;11.400;2022-12-07T06:20:07;5.80;99.90
11095;DHT22;5601;44.490;11.400;2022-12-07T06:22:34;5.80;99.90
11095;DHT22;5601;44.490;11.400;2022-12-07T06:25:03;5.80;99.90
11095;DHT22;5601;44.490;11.400;2022-12-07T06:27:32;5.90;99.90
11095;DHT22;5601;44.490;11.400;2022-12-07T06:30:00;5.90;99.90
11095;DHT22;5601;44.490;11.400;2022-12-07T06:32:31;5.90;99.90
11095;DHT22;5601;44.490;11.400;2022-12-07T06:34:59;5.90;99.90
11095;DHT22;5601;44.490;11.400;2022-12-07T06:37:26;5.90;99.90
11095;DHT22;5601;44.490;11.400;2022-12-07T06:39:53;5.90;99.90
11095;DHT22;5601;44.490;11.400;2022-12-07T06:42:22;5.90;99.90
11095;DHT22;5601;44.490;11.400;2022-12-07T06:44:49;6.00;99.90
11095;DHT22;5601;44.490;11.400;2022-12-07T06:47:16;6.10;99.90
11095;DHT22;5601;44.490;11.400;2022-12-07T06:49:43;6.10;99.90
11095;DHT22;5601;44.490;11.400;2022-12-07T06:52:11;6.10;99.90
11095;DHT22;5601;44.490;11.400;2022-12-07T06:54:38;6.10;99.90
11095;DHT22;5601;44.490;11.400;2022-12-07T06:57:05;6.10;99.90
11095;DHT22;5601;44.490;11.400;2022-12-07T06:59:34;6.10;99.90
11095;DHT22;5601;44.490;11.400;2022-12-07T07:02:01;6.10;99.90
11095;DHT22;5601;44.490;11.400;2022-12-07T07:04:28;6.10;99.90
11095;DHT22;5601;44.490;11.400;2022-12-07T07:06:56;6.10;99.90
11095;DHT22;5601;44.490;11.400;2022-12-07T07:54:35;6.30;99.90
11095;DHT22;5601;44.490;11.400;2022-12-07T07:57:01;6.40;99.90
11095;DHT22;5601;44.490;11.400;2022-12-07T07:59:29;6.40;99.90
11095;DHT22;5601;44.490;11.400;2022-12-07T08:01:56;6.30;99.90
11095;DHT22;5601;44.490;11.400;2022-12-07T08:04:23;6.30;99.90
11095;DHT22;5601;44.490;11.400;2022-12-07T08:06:50;6.30;99.90
11095;DHT22;5601;44.490;11.400;2022-12-07T08:09:17;6.30;99.90
11095;DHT22;5601;44.490;11.400;2022-12-07T08:11:46;6.30;99.90
11095;DHT22;5601;44.490;11.400;2022-12-07T08:14:14;6.30;99.90
11095;DHT22;5601;44.490;11.400;2022-12-07T08:16:41;6.40;99.90
11095;DHT22;5601;44.490;11.400;2022-12-07T08:19:07;6.40;99.90
11095;DHT22;5601;44.490;11.400;2022-12-07T08:21:34;6.40;99.90
11095;DHT22;5601;44.490;11.400;2022-12-07T08:24:01;6.40;99.90
11095;DHT22;5601;44.490;11.400;2022-12-07T08:26:28;6.50;99.90
11095;DHT22;5601;44.490;11.400;2022-12-07T08:28:56;6.50;99.90
11095;DHT22;5601;44.490;11.400;2022-12-07T08:31:23;6.50;99.90
11095;DHT22;5601;44.490;11.400;2022-12-07T08:33:50;6.60;99.90
11095;DHT22;5601;44.490;11.400;2022-12-07T08:36:16;6.60;99.90
11095;DHT22;5601;44.490;11.400;2022-12-07T08:38:43;6.60;99.90
11095;DHT22;5601;44.490;11.400;2022-12-07T08:41:10;6.60;99.90
11095;DHT22;5601;44.490;11.400;2022-12-07T08:43:37;6.60;99.90
11095;DHT22;5601;44.490;11.400;2022-12-07T08:46:08;6.60;99.90
11095;DHT22;5601;44.490;11.400;2022-12-07T08:48:38;6.60;99.90
11095;DHT22;5601;44.490;11.400;2022-12-07T08:51:06;6.70;99.90
11095;DHT22;5601;44.490;11.400;2022-12-07T08:53:33;6.70;99.90
11095;DHT22;5601;44.490;11.400;2022-12-07T08:56:02;6.60;99.90
11095;DHT22;5601;44.490;11.400;2022-12-07T08:58:29;6.50;99.90
11095;DHT22;5601;44.490;11.400;2022-12-07T09:00:56;6.50;99.90
11095;DHT22;5601;44.490;11.400;2022-12-07T09:03:25;6.60;99.90
11095;DHT22;5601;44.490;11.400;2022-12-07T09:05:52;6.60;99.90
11095;DHT22;5601;44.490;11.400;2022-12-07T09:08:21;6.60;99.90
11095;DHT22;5601;44.490;11.400;2022-12-07T09:11:00;6.60;99.90
11095;DHT22;5601;44.490;11.400;2022-12-07T09:13:27;6.60;99.90
11095;DHT22;5601;44.490;11.400;2022-12-07T09:15:54;6.60;99.90
11095;DHT22;5601;44.490;11.400;2022-12-07T09:18:21;6.60;99.90
11095;DHT22;5601;44.490;11.400;2022-12-07T09:20:51;6.50;99.90
11095;DHT22;5601;44.490;11.400;2022-12-07T09:23:18;6.50;99.90
11095;DHT22;5601;44.490;11.400;2022-12-07T09:25:45;6.50;99.90
11095;DHT22;5601;44.490;11.400;2022-12-07T09:28:13;6.60;99.90
11095;DHT22;5601;44.490;11.400;2022-12-07T09:30:44;6.70;99.90
11095;DHT22;5601;44.490;11.400;2022-12-07T09:33:12;6.60;99.90
11095;DHT22;5601;44.490;11.400;2022-12-07T09:35:43;6.70;99.90
11095;DHT22;5601;44.490;11.400;2022-12-07T09:38:12;6.70;99.90
11095;DHT22;5601;44.490;11.400;2022-12-07T09:40:39;6.70;99.90
11095;DHT22;5601;44.490;11.400;2022-12-07T09:43:10;6.80;99.90
11095;DHT22;5601;44.490;11.400;2022-12-07T09:45:38;6.80;99.90
11095;DHT22;5601;44.490;11.400;2022-12-07T09:48:05;6.90;99.90
11095;DHT22;5601;44.490;11.400;2022-12-07T09:50:32;6.90;99.90
11095;DHT22;5601;44.490;11.400;2022-12-07T09:53:03;7.10;99.90
11095;DHT22;5601;44.490;11.400;2022-12-07T09:55:33;7.10;99.90
11095;DHT22;5601;44.490;11.400;2022-12-07T09:58:00;7.10;99.90
11095;DHT22;5601;44.490;11.400;2022-12-07T10:00:27;7.00;99.90
11095;DHT22;5601;44.490;11.400;2022-12-07T10:02:55;7.10;99.90
11095;DHT22;5601;44.490;11.400;2022-12-07T10:05:23;7.10;99.90
11095;DHT22;5601;44.490;11.400;2022-12-07T10:07:51;7.10;99.90
11095;DHT22;5601;44.490;11.400;2022-12-07T10:10:23;7.30;99.90
11095;DHT22;5601;44.490;11.400;2022-12-07T10:12:56;7.50;99.90
11095;DHT22;5601;44.490;11.400;2022-12-07T10:15:23;7.60;99.90
11095;DHT22;5601;44.490;11.400;2022-12-07T10:17:51;7.60;99.90
11095;DHT22;5601;44.490;11.400;2022-12-07T10:20:19;7.80;99.90
11095;DHT22;5601;44.490;11.400;2022-12-07T10:22:57;7.90;99.90
11095;DHT22;5601;44.490;11.400;2022-12-07T10:25:25;7.80;99.90
11095;DHT22;5601;44.490;11.400;2022-12-07T10:28:01;7.70;99.90
11095;DHT22;5601;44.490;11.400;2022-12-07T10:30:29;7.60;99.90
11095;DHT22;5601;44.490;11.400;2022-12-07T10:32:56;7.70;99.90
11095;DHT22;5601;44.490;11.400;2022-12-07T10:35:24;7.90;99.90
11095;DHT22;5601;44.490;11.400;2022-12-07T10:37:53;7.70;99.90
11095;DHT22;5601;44.490;11.400;2022-12-07T10:40:24;7.80;99.90
11095;DHT22;5601;44.490;11.400;2022-12-07T10:43:01;7.90;99.90
11095;DHT22;5601;44.490;11.400;2022-12-07T10:45:28;7.90;99.90
11095;DHT22;5601;44.490;11.400;2022-12-07T10:47:55;7.70;99.90
11095;DHT22;5601;44.490;11.400;2022-12-07T10:50:29;7.70;99.90
11095;DHT22;5601;44.490;11.400;2022-12-07T10:55:55;7.40;99.90
11095;DHT22;5601;44.490;11.400;2022-12-07T10:58:34;7.50;99.90
11095;DHT22;5601;44.490;11.400;2022-12-07T11:01:03;7.50;99.90
11095;DHT22;5601;44.490;11.400;2022-12-07T11:03:36;7.50;99.90
11095;DHT22;5601;44.490;11.400;2022-12-07T11:06:09;7.50;99.90
11095;DHT22;5601;44.490;11.400;2022-12-07T11:08:39;7.50;99.90
11095;DHT22;5601;44.490;11.400;2022-12-07T11:11:09;7.50;99.90
11095;DHT22;5601;44.490;11.400;2022-12-07T11:13:39;7.60;99.90
11095;DHT22;5601;44.490;11.400;2022-12-07T11:16:13;7.70;99.90
11095;DHT22;5601;44.490;11.400;2022-12-07T11:18:43;7.80;99.90
11095;DHT22;5601;44.490;11.400;2022-12-07T11:21:13;7.70;99.90
11095;DHT22;5601;44.490;11.400;2022-12-07T11:23:46;7.80;99.90
11095;DHT22;5601;44.490;11.400;2022-12-07T11:26:17;7.90;99.90
11095;DHT22;5601;44.490;11.400;2022-12-07T11:28:53;7.80;99.90
11095;DHT22;5601;44.490;11.400;2022-12-07T11:31:26;7.90;99.90
11095;DHT22;5601;44.490;11.400;2022-12-07T11:33:56;7.90;99.90
11095;DHT22;5601;44.490;11.400;2022-12-07T11:36:31;7.90;99.90
11095;DHT22;5601;44.490;11.400;2022-12-07T11:39:00;8.00;99.90
11095;DHT22;5601;44.490;11.400;2022-12-07T11:41:28;8.00;99.90
11095;DHT22;5601;44.490;11.400;2022-12-07T11:43:58;8.10;99.90
11095;DHT22;5601;44.490;11.400;2022-12-07T11:46:26;8.10;99.90
11095;DHT22;5601;44.490;11.400;2022-12-07T11:48:55;8.10;99.90
11095;DHT22;5601;44.490;11.400;2022-12-07T11:51:24;8.30;99.90
11095;DHT22;5601;44.490;11.400;2022-12-07T11:53:53;8.30;99.90
11095;DHT22;5601;44.490;11.400;2022-12-07T11:56:21;8.20;99.90
11095;DHT22;5601;44.490;11.400;2022-12-07T11:58:50;8.30;99.90
11095;DHT22;5601;44.490;11.400;2022-12-07T12:01:26;8.40;99.90
11095;DHT22;5601;44.490;11.400;2022-12-07T12:03:56;8.40;99.90
11095;DHT22;5601;44.490;11.400;2022-12-07T12:06:24;8.40;99.90
11095;DHT22;5601;44.490;11.400;2022-12-07T12:08:53;8.30;99.90
11095;DHT22;5601;44.490;11.400;2022-12-07T12:11:30;8.40;99.90
11095;DHT22;5601;44.490;11.400;2022-12-07T12:17:06;8.50;99.90
11095;DHT22;5601;44.490;11.400;2022-12-07T12:19:40;8.60;99.90
11095;DHT22;5601;44.490;11.400;2022-12-07T12:22:10;8.70;99.90
11095;DHT22;5601;44.490;11.400;2022-12-07T12:24:39;8.80;99.90
11095;DHT22;5601;44.490;11.400;2022-12-07T12:27:08;8.70;99.90
11095;DHT22;5601;44.490;11.400;2022-12-07T12:29:38;8.80;99.90
11095;DHT22;5601;44.490;11.400;2022-12-07T12:32:12;8.70;99.90
11095;DHT22;5601;44.490;11.400;2022-12-07T12:34:40;8.70;99.90
11095;DHT22;5601;44.490;11.400;2022-12-07T12:42:43;8.70;99.90
11095;DHT22;5601;44.490;11.400;2022-12-07T12:45:20;8.60;99.90
11095;DHT22;5601;44.490;11.400;2022-12-07T12:50:30;8.60;99.90
11095;DHT22;5601;44.490;11.400;2022-12-07T12:53:02;8.60;99.90
11095;DHT22;5601;44.490;11.400;2022-12-07T12:58:29;8.40;99.90
11095;DHT22;5601;44.490;11.400;2022-12-07T13:03:50;8.40;99.90
11095;DHT22;5601;44.490;11.400;2022-12-07T13:06:31;8.50;99.90
11095;DHT22;5601;44.490;11.400;2022-12-07T13:09:01;8.60;99.90
11095;DHT22;5601;44.490;11.400;2022-12-07T13:11:28;8.60;99.90
11095;DHT22;5601;44.490;11.400;2022-12-07T13:16:41;8.40;99.90
11095;DHT22;5601;44.490;11.400;2022-12-07T13:21:54;8.70;99.90
11095;DHT22;5601;44.490;11.400;2022-12-07T13:24:21;8.60;99.90
11095;DHT22;5601;44.490;11.400;2022-12-07T13:26:48;8.60;99.90
11095;DHT22;5601;44.490;11.400;2022-12-07T13:29:15;8.60;99.90
11095;DHT22;5601;44.490;11.400;2022-12-07T13:31:43;8.40;99.90
11095;DHT22;5601;44.490;11.400;2022-12-07T13:34:30;8.40;99.90
11095;DHT22;5601;44.490;11.400;2022-12-07T13:37:02;8.40;99.90
11095;DHT22;5601;44.490;11.400;2022-12-07T13:39:32;8.30;99.90
11095;DHT22;5601;44.490;11.400;2022-12-07T13:42:06;8.20;99.90
11095;DHT22;5601;44.490;11.400;2022-12-07T13:44:34;8.20;99.90
11095;DHT22;5601;44.490;11.400;2022-12-07T13:47:03;8.20;99.90
11095;DHT22;5601;44.490;11.400;2022-12-07T13:49:32;8.20;99.90
11095;DHT22;5601;44.490;11.400;2022-12-07T13:52:12;8.10;99.90
11095;DHT22;5601;44.490;11.400;2022-12-07T15:19:12;7.60;99.90
11095;DHT22;5601;44.490;11.400;2022-12-07T15:21:41;7.50;99.90
11095;DHT22;5601;44.490;11.400;2022-12-07T15:24:09;7.40;99.90
11095;DHT22;5601;44.490;11.400;2022-12-07T15:26:37;7.40;99.90
11095;DHT22;5601;44.490;11.400;2022-12-07T15:29:05;7.30;99.90
11095;DHT22;5601;44.490;11.400;2022-12-07T15:31:35;7.30;99.90
11095;DHT22;5601;44.490;11.400;2022-12-07T15:34:02;7.20;99.90
11095;DHT22;5601;44.490;11.400;2022-12-07T15:36:31;7.20;99.90
11095;DHT22;5601;44.490;11.400;2022-12-07T15:38:58;7.20;99.90
11095;DHT22;5601;44.490;11.400;2022-12-07T15:41:26;7.10;99.90
11095;DHT22;5601;44.490;11.400;2022-12-07T15:43:54;7.10;99.90
11095;DHT22;5601;44.490;11.400;2022-12-07T15:46:39;7.10;99.90
11095;DHT22;5601;44.490;11.400;2022-12-07T15:49:08;7.10;99.90
11095;DHT22;5601;44.490;11.400;2022-12-07T15:51:37;7.10;99.90
11095;DHT22;5601;44.490;11.400;2022-12-07T15:54:04;7.10;99.90
11095;DHT22;5601;44.490;11.400;2022-12-07T15:56:32;7.10;99.90
11095;DHT22;5601;44.490;11.400;2022-12-07T15:58:59;7.10;99.90
11095;DHT22;5601;44.490;11.400;2022-12-07T16:01:26;7.10;99.90
11095;DHT22;5601;44.490;11.400;2022-12-07T16:03:52;7.10;99.90
11095;DHT22;5601;44.490;11.400;2022-12-07T16:06:19;7.10;99.90
11095;DHT22;5601;44.490;11.400;2022-12-07T16:08:47;7.10;99.90
11095;DHT22;5601;44.490;11.400;2022-12-07T16:11:14;7.10;99.90
11095;DHT22;5601;44.490;11.400;2022-12-07T16:13:41;7.00;99.90
11095;DHT22;5601;44.490;11.400;2022-12-07T16:16:09;6.90;99.90
11095;DHT22;5601;44.490;11.400;2022-12-07T16:18:36;6.90;99.90
11095;DHT22;5601;44.490;11.400;2022-12-07T16:21:03;6.90;99.90
11095;DHT22;5601;44.490;11.400;2022-12-07T16:23:30;6.90;99.90
11095;DHT22;5601;44.490;11.400;2022-12-07T16:26:04;6.90;99.90
11095;DHT22;5601;44.490;11.400;2022-12-07T16:28:31;6.90;99.90
11095;DHT22;5601;44.490;11.400;2022-12-07T16:31:01;6.80;99.90
11095;DHT22;5601;44.490;11.400;2022-12-07T16:33:28;6.80;99.90
11095;DHT22;5601;44.490;11.400;2022-12-07T16:35:55;6.80;99.90
11095;DHT22;5601;44.490;11.400;2022-12-07T16:38:22;6.80;99.90
11095;DHT22;5601;44.490;11.400;2022-12-07T16:40:49;6.80;99.90
11095;DHT22;5601;44.490;11.400;2022-12-07T16:43:17;6.80;99.90
11095;DHT22;5601;44.490;11.400;2022-12-07T16:45:44;6.80;99.90
11095;DHT22;5601;44.490;11.400;2022-12-07T16:48:11;6.70;99.90
11095;DHT22;5601;44.490;11.400;2022-12-07T16:50:38;6.60;99.90
11095;DHT22;5601;44.490;11.400;2022-12-07T16:53:05;6.60;99.90
11095;DHT22;5601;44.490;11.400;2022-12-07T16:55:34;6.50;99.90
11095;DHT22;5601;44.490;11.400;2022-12-07T16:58:01;6.40;99.90
11095;DHT22;5601;44.490;11.400;2022-12-07T17:00:29;6.30;99.90
11095;DHT22;5601;44.490;11.400;2022-12-07T17:02:56;6.30;99.90
11095;DHT22;5601;44.490;11.400;2022-12-07T17:05:23;6.20;99.90
11095;DHT22;5601;44.490;11.400;2022-12-07T17:07:50;6.20;99.90
11095;DHT22;5601;44.490;11.400;2022-12-07T17:10:18;6.10;99.90
11095;DHT22;5601;44.490;11.400;2022-12-07T17:12:45;6.10;99.90
11095;DHT22;5601;44.490;11.400;2022-12-07T17:15:12;6.10;99.90
11095;DHT22;5601;44.490;11.400;2022-12-07T17:17:51;6.00;99.90
11095;DHT22;5601;44.490;11.400;2022-12-07T17:20:19;5.90;99.90
11095;DHT22;5601;44.490;11.400;2022-12-07T17:22:46;5.90;99.90
11095;DHT22;5601;44.490;11.400;2022-12-07T17:25:14;5.90;99.90
11095;DHT22;5601;44.490;11.400;2022-12-07T17:27:41;5.80;99.90
11095;DHT22;5601;44.490;11.400;2022-12-07T17:30:09;5.80;99.90
11095;DHT22;5601;44.490;11.400;2022-12-07T17:32:35;5.70;99.90
11095;DHT22;5601;44.490;11.400;2022-12-07T17:35:05;5.70;99.90
11095;DHT22;5601;44.490;11.400;2022-12-07T17:37:33;5.60;99.90
11095;DHT22;5601;44.490;11.400;2022-12-07T17:40:00;5.60;99.90
11095;DHT22;5601;44.490;11.400;2022-12-07T17:42:26;5.60;99.90
11095;DHT22;5601;44.490;11.400;2022-12-07T17:45:02;5.60;99.90
11095;DHT22;5601;44.490;11.400;2022-12-07T17:47:29;5.50;99.90
11095;DHT22;5601;44.490;11.400;2022-12-07T17:49:56;5.60;99.90
11095;DHT22;5601;44.490;11.400;2022-12-07T17:52:25;5.60;99.90
11095;DHT22;5601;44.490;11.400;2022-12-07T17:55:09;5.50;99.90
11095;DHT22;5601;44.490;11.400;2022-12-07T17:57:37;5.50;99.90
11095;DHT22;5601;44.490;11.400;2022-12-07T18:00:04;5.40;99.90
11095;DHT22;5601;44.490;11.400;2022-12-07T18:02:33;5.40;99.90
11095;DHT22;5601;44.490;11.400;2022-12-07T18:05:00;5.40;99.90
11095;DHT22;5601;44.490;11.400;2022-12-07T18:07:28;5.40;99.90
11095;DHT22;5601;44.490;11.400;2022-12-07T18:09:55;5.40;99.90
11095;DHT22;5601;44.490;11.400;2022-12-07T18:12:24;5.40;99.90
11095;DHT22;5601;44.490;11.400;2022-12-07T18:14:51;5.30;99.90
11095;DHT22;5601;44.490;11.400;2022-12-07T18:17:19;5.30;99.90
11095;DHT22;5601;44.490;11.400;2022-12-07T18:19:46;5.30;99.90
11095;DHT22;5601;44.490;11.400;2022-12-07T18:22:13;5.20;99.90
11095;DHT22;5601;44.490;11.400;2022-12-07T18:24:42;5.20;99.90
11095;DHT22;5601;44.490;11.400;2022-12-07T18:27:09;5.20;99.90
11095;DHT22;5601;44.490;11.400;2022-12-07T18:29:36;5.10;99.90
11095;DHT22;5601;44.490;11.400;2022-12-07T18:32:03;5.10;99.90
11095;DHT22;5601;44.490;11.400;2022-12-07T18:34:30;5.00;99.90
11095;DHT22;5601;44.490;11.400;2022-12-07T18:36:57;4.90;99.90
11095;DHT22;5601;44.490;11.400;2022-12-07T18:39:24;4.90;99.90
11095;DHT22;5601;44.490;11.400;2022-12-07T18:41:53;4.90;99.90
11095;DHT22;5601;44.490;11.400;2022-12-07T18:44:20;4.80;99.90
11095;DHT22;5601;44.490;11.400;2022-12-07T18:46:48;4.70;99.90
11095;DHT22;5601;44.490;11.400;2022-12-07T18:49:15;4.60;99.90
11095;DHT22;5601;44.490;11.400;2022-12-07T18:51:41;4.50;99.90
11095;DHT22;5601;44.490;11.400;2022-12-07T18:54:09;4.50;99.90
11095;DHT22;5601;44.490;11.400;2022-12-07T18:56:36;4.40;99.90
11095;DHT22;5601;44.490;11.400;2022-12-07T18:59:05;4.40;99.90
11095;DHT22;5601;44.490;11.400;2022-12-07T19:01:49;4.40;99.90
11095;DHT22;5601;44.490;11.400;2022-12-07T19:04:17;4.50;99.90
11095;DHT22;5601;44.490;11.400;2022-12-07T19:06:44;4.50;99.90
11095;DHT22;5601;44.490;11.400;2022-12-07T19:09:11;4.50;99.90
11095;DHT22;5601;44.490;11.400;2022-12-07T19:11:38;4.60;99.90
11095;DHT22;5601;44.490;11.400;2022-12-07T19:14:20;4.60;99.90
11095;DHT22;5601;44.490;11.400;2022-12-07T19:16:48;4.60;99.90
11095;DHT22;5601;44.490;11.400;2022-12-07T19:19:16;4.60;99.90
11095;DHT22;5601;44.490;11.400;2022-12-07T19:21:43;4.60;99.90
11095;DHT22;5601;44.490;11.400;2022-12-07T19:24:10;4.50;99.90
11095;DHT22;5601;44.490;11.400;2022-12-07T19:26:37;4.60;99.90
11095;DHT22;5601;44.490;11.400;2022-12-07T19:29:04;4.50;99.90
11095;DHT22;5601;44.490;11.400;2022-12-07T19:31:32;4.40;99.90
11095;DHT22;5601;44.490;11.400;2022-12-07T19:34:00;4.40;99.90
11095;DHT22;5601;44.490;11.400;2022-12-07T19:36:27;4.40;99.90
11095;DHT22;5601;44.490;11.400;2022-12-07T19:38:55;4.40;99.90